Terminal Aerodrome Forecast
Issued by NWS

Home | Current Version | Previous Version | Graphics & Text | Print | Product List | Glossary Off
Versions: 1 2 3 4 5 6 7 8 9 10 11 12 13

000
FTUS43 KTOP 310500
TAFFOE
TAF
KFOE 310520Z 3106/0106 35016G24KT P6SM BKN020
     FM311000 35015G22KT P6SM SCT025
     FM311400 36016G28KT P6SM SKC
     FM312100 01010KT P6SM SKC=

USA.gov is the U.S. government's official web portal to all federal, state and local government web resources and services.